createdAt,value
2018-08-23T00:00:49.061Z,18.30
2018-08-23T00:03:53.536Z,18.20
2018-08-23T00:07:01.985Z,18.10
2018-08-23T00:10:06.417Z,18.00
2018-08-23T00:13:10.705Z,18.00
2018-08-23T00:16:14.969Z,18.10
2018-08-23T00:19:19.321Z,18.10
2018-08-23T00:22:27.171Z,18.20
2018-08-23T00:25:32.683Z,18.10
2018-08-23T00:31:42.006Z,18.10
2018-08-23T00:34:46.296Z,18.10
2018-08-23T00:37:50.663Z,18.10
2018-08-23T00:40:54.939Z,18.10
2018-08-23T00:43:59.401Z,18.10
2018-08-23T00:47:03.714Z,18.10
2018-08-23T00:50:08.033Z,18.00
2018-08-23T00:53:12.324Z,18.00
2018-08-23T00:56:20.555Z,17.90
2018-08-23T00:59:24.812Z,17.90
2018-08-23T01:02:29.091Z,17.90
2018-08-23T01:08:40.489Z,17.70
2018-08-23T01:11:46.861Z,17.60
2018-08-23T01:14:53.090Z,17.60
2018-08-23T01:18:15.930Z,17.50
2018-08-23T01:21:20.317Z,17.50
2018-08-23T01:27:38.216Z,17.40
2018-08-23T01:30:43.045Z,17.40
2018-08-23T01:36:51.541Z,17.50
2018-08-23T01:39:55.810Z,17.40
2018-08-23T01:43:00.161Z,17.30
2018-08-23T01:46:04.482Z,17.30
2018-08-23T01:55:17.832Z,17.20
2018-08-23T01:58:22.178Z,17.20
2018-08-23T02:01:26.493Z,17.20
2018-08-23T02:04:30.843Z,17.20
2018-08-23T02:07:35.125Z,17.20
2018-08-23T02:10:39.453Z,17.20
2018-08-23T02:13:48.112Z,17.10
2018-08-23T02:16:53.624Z,17.10
2018-08-23T02:19:57.910Z,17.20
2018-08-23T02:26:08.934Z,17.20
2018-08-23T02:29:13.265Z,17.10
2018-08-23T02:35:21.657Z,17.20
2018-08-23T02:38:27.584Z,17.10
2018-08-23T02:41:32.234Z,17.20
2018-08-23T02:47:40.589Z,17.20
2018-08-23T02:50:44.953Z,17.30
2018-08-23T02:53:49.805Z,17.30
2018-08-23T02:56:56.502Z,17.40
2018-08-23T03:00:00.767Z,17.40
2018-08-23T03:03:05.035Z,17.40
2018-08-23T03:06:09.357Z,17.50
2018-08-23T03:09:13.644Z,17.50
2018-08-23T03:12:18.988Z,17.50
2018-08-23T03:15:25.464Z,17.50
2018-08-23T03:21:33.953Z,17.50
2018-08-23T03:24:38.276Z,17.50
2018-08-23T03:27:42.593Z,17.50
2018-08-23T03:30:51.069Z,17.50
2018-08-23T03:33:55.424Z,17.50
2018-08-23T03:36:59.762Z,17.50
2018-08-23T03:40:04.520Z,17.50
2018-08-23T03:43:08.748Z,17.50
2018-08-23T03:46:13.132Z,17.50
2018-08-23T03:49:17.441Z,17.50
2018-08-23T03:52:53.822Z,17.60
2018-08-23T03:56:09.534Z,17.50
2018-08-23T03:59:13.926Z,17.50
2018-08-23T04:05:23.389Z,17.50
2018-08-23T04:08:27.708Z,17.50
2018-08-23T04:11:32.126Z,17.60
2018-08-23T04:14:38.869Z,17.50
2018-08-23T04:17:43.267Z,17.40
2018-08-23T04:20:54.803Z,17.40
2018-08-23T04:27:03.225Z,17.50
2018-08-23T04:30:08.848Z,17.50
2018-08-23T04:33:13.200Z,17.50
2018-08-23T04:36:32.897Z,17.50
2018-08-23T04:39:38.494Z,17.60
2018-08-23T04:48:51.159Z,17.60
2018-08-23T04:58:04.295Z,17.70
2018-08-23T05:04:13.925Z,17.80
2018-08-23T05:07:18.445Z,17.80
2018-08-23T05:10:22.750Z,17.90
2018-08-23T05:16:31.172Z,18.00
2018-08-23T05:19:35.583Z,18.00
2018-08-23T05:22:41.715Z,18.00
2018-08-23T05:25:46.077Z,18.10
2018-08-23T05:29:03.782Z,18.10
2018-08-23T05:35:12.351Z,18.20
2018-08-23T05:38:17.441Z,18.20
2018-08-23T05:41:21.808Z,18.30
2018-08-23T05:44:26.081Z,18.30
2018-08-23T05:50:36.074Z,18.40
2018-08-23T05:56:48.116Z,18.40
2018-08-23T06:06:01.293Z,18.60
2018-08-23T06:09:11.157Z,18.60
2018-08-23T06:21:28.284Z,18.60
2018-08-23T06:24:32.632Z,18.60
2018-08-23T06:27:36.900Z,18.60
2018-08-23T06:30:41.282Z,18.70
2018-08-23T06:33:49.656Z,18.80
2018-08-23T06:36:54.625Z,18.90
2018-08-23T06:46:09.508Z,19.00
2018-08-23T06:49:13.923Z,19.10
2018-08-23T06:53:01.991Z,19.20
2018-08-23T06:56:06.327Z,19.30
2018-08-23T06:59:10.866Z,19.40
2018-08-23T07:02:15.137Z,19.40
2018-08-23T07:05:20.182Z,19.50
2018-08-23T07:08:24.641Z,19.50
2018-08-23T07:11:28.914Z,19.70
2018-08-23T07:14:34.584Z,19.70
2018-08-23T07:17:38.934Z,19.80
2018-08-23T07:20:43.224Z,19.90
2018-08-23T07:29:57.259Z,20.00
2018-08-23T07:33:01.639Z,20.00
2018-08-23T07:36:23.174Z,20.00
2018-08-23T07:39:27.544Z,20.10
2018-08-23T07:42:32.952Z,20.20
2018-08-23T07:45:37.314Z,20.30
2018-08-23T07:48:41.671Z,20.40
2018-08-23T07:51:46.075Z,20.50
2018-08-23T07:57:54.610Z,20.50
2018-08-23T08:00:58.957Z,20.50
2018-08-23T08:04:03.237Z,20.40
2018-08-23T08:07:12.732Z,20.40
2018-08-23T08:10:20.642Z,20.40
2018-08-23T08:16:33.044Z,20.70
2018-08-23T08:19:40.848Z,20.90
2018-08-23T08:25:49.167Z,21.10
2018-08-23T08:28:53.558Z,21.20
2018-08-23T08:31:57.861Z,21.30
2018-08-23T08:35:02.164Z,21.30
2018-08-23T08:44:14.920Z,22.00
2018-08-23T08:47:19.267Z,22.10
2018-08-23T08:50:23.628Z,22.20
2018-08-23T08:53:27.921Z,22.30
2018-08-23T08:59:42.610Z,22.00
2018-08-23T09:02:47.797Z,22.00
2018-08-23T09:05:52.104Z,22.00
2018-08-23T09:08:56.513Z,22.00
2018-08-23T09:12:03.960Z,22.00
2018-08-23T09:15:08.272Z,21.90
2018-08-23T09:18:12.631Z,22.00
2018-08-23T09:21:17.056Z,21.90
2018-08-23T09:24:28.669Z,22.00
2018-08-23T09:27:33.006Z,22.10
2018-08-23T09:30:37.340Z,22.30
2018-08-23T09:33:41.995Z,22.40
2018-08-23T09:36:46.277Z,22.50
2018-08-23T09:39:50.618Z,22.60
2018-08-23T09:42:54.957Z,22.90
2018-08-23T09:45:59.244Z,23.10
2018-08-23T09:49:03.511Z,23.40
2018-08-23T09:52:11.932Z,23.30
2018-08-23T09:55:17.292Z,23.20
2018-08-23T09:58:26.919Z,22.90
2018-08-23T10:01:36.459Z,22.80
2018-08-23T10:04:46.168Z,22.60
2018-08-23T10:07:55.722Z,22.60
2018-08-23T10:11:05.260Z,22.70
2018-08-23T10:14:14.949Z,22.90
2018-08-23T10:17:24.574Z,22.90
2018-08-23T10:20:34.190Z,23.40
2018-08-23T10:23:38.490Z,23.40
2018-08-23T10:26:42.823Z,23.30
2018-08-23T10:29:47.129Z,23.60
2018-08-23T10:32:51.399Z,23.60
2018-08-23T10:35:56.635Z,23.40
2018-08-23T10:39:01.006Z,23.40
2018-08-23T10:42:09.534Z,23.20
2018-08-23T10:45:14.104Z,23.20
2018-08-23T10:48:19.453Z,22.90
2018-08-23T10:51:23.845Z,22.80
2018-08-23T10:54:28.152Z,22.40
2018-08-23T10:57:32.576Z,22.20
2018-08-23T11:00:36.897Z,22.00
2018-08-23T11:03:41.316Z,21.80
2018-08-23T11:06:50.902Z,21.80
2018-08-23T11:10:00.531Z,21.90
2018-08-23T11:17:18.546Z,21.50
2018-08-23T11:20:34.895Z,21.50
2018-08-23T11:26:43.256Z,21.40
2018-08-23T11:29:47.641Z,21.50
2018-08-23T11:32:53.202Z,21.60
2018-08-23T11:35:57.609Z,21.80
2018-08-23T11:39:01.878Z,21.90
2018-08-23T11:42:06.217Z,22.00
2018-08-23T11:45:10.634Z,22.00
2018-08-23T11:48:14.917Z,21.90
2018-08-23T11:54:23.887Z,22.10
2018-08-23T12:00:32.423Z,21.90
2018-08-23T12:03:37.144Z,22.00
2018-08-23T12:06:41.444Z,22.10
2018-08-23T12:09:45.847Z,22.00
2018-08-23T12:12:51.571Z,22.00
2018-08-23T12:15:55.897Z,22.00
2018-08-23T12:19:00.291Z,22.20
2018-08-23T12:25:08.971Z,22.40
2018-08-23T12:28:18.382Z,22.40
2018-08-23T12:31:22.771Z,22.30
2018-08-23T12:34:35.163Z,22.40
2018-08-23T12:37:44.886Z,22.30
2018-08-23T12:40:54.515Z,22.40
2018-08-23T12:47:03.878Z,22.40
2018-08-23T12:50:08.207Z,22.40
2018-08-23T12:53:12.763Z,22.30
2018-08-23T12:59:21.207Z,22.30
2018-08-23T13:02:25.897Z,22.40
2018-08-23T13:05:30.172Z,22.50
2018-08-23T13:08:34.553Z,22.70
2018-08-23T13:11:38.809Z,22.90
2018-08-23T13:14:43.138Z,23.10
2018-08-23T13:17:47.400Z,23.00
2018-08-23T13:20:51.705Z,23.10
2018-08-23T13:27:00.097Z,22.80
2018-08-23T13:30:04.553Z,22.80
2018-08-23T13:33:08.829Z,22.60
2018-08-23T13:36:13.337Z,22.60
2018-08-23T13:39:17.708Z,22.60
2018-08-23T13:42:22.274Z,22.40
2018-08-23T13:48:30.711Z,22.40
2018-08-23T13:51:35.249Z,22.30
2018-08-23T13:54:39.854Z,22.40
2018-08-23T13:57:44.031Z,22.40
2018-08-23T14:00:48.538Z,22.20
2018-08-23T14:03:53.404Z,22.10
2018-08-23T14:06:57.789Z,22.20
2018-08-23T14:10:02.065Z,22.40
2018-08-23T14:13:06.480Z,22.50
2018-08-23T14:19:15.076Z,22.50
2018-08-23T14:22:19.438Z,22.50
2018-08-23T14:25:23.756Z,22.50
2018-08-23T14:28:28.192Z,22.60
2018-08-23T14:31:32.520Z,22.50
2018-08-23T14:34:36.862Z,22.50
2018-08-23T14:37:41.543Z,22.40
2018-08-23T14:40:45.826Z,22.40
2018-08-23T14:43:50.171Z,22.20
2018-08-23T14:50:03.761Z,22.00
2018-08-23T14:53:08.121Z,21.90
2018-08-23T14:56:17.699Z,21.90
2018-08-23T14:59:21.998Z,21.80
2018-08-23T15:02:26.297Z,21.90
2018-08-23T15:05:30.617Z,21.80
2018-08-23T15:11:39.153Z,21.90
2018-08-23T15:14:43.587Z,21.90
2018-08-23T15:17:48.001Z,22.00
2018-08-23T15:20:52.510Z,22.10
2018-08-23T15:23:56.792Z,22.10
2018-08-23T15:27:01.263Z,22.20
2018-08-23T15:30:05.952Z,22.10
2018-08-23T15:39:18.585Z,22.00
2018-08-23T15:42:22.931Z,22.00
2018-08-23T15:51:35.786Z,22.10
2018-08-23T15:54:40.101Z,22.10
2018-08-23T15:57:44.462Z,22.20
2018-08-23T16:00:48.783Z,22.10
2018-08-23T16:03:53.206Z,22.10
2018-08-23T16:06:57.629Z,22.10
2018-08-23T16:10:01.967Z,22.10
2018-08-23T16:13:06.374Z,22.10
2018-08-23T16:16:16.022Z,22.10
2018-08-23T16:19:25.767Z,22.00
2018-08-23T16:22:30.164Z,22.00
2018-08-23T16:28:43.956Z,22.10
2018-08-23T16:31:48.493Z,22.00
2018-08-23T16:34:53.214Z,22.00
2018-08-23T16:37:57.571Z,22.00
2018-08-23T16:41:01.915Z,22.00
2018-08-23T16:44:06.319Z,22.00
2018-08-23T16:50:15.398Z,21.90
2018-08-23T16:53:19.869Z,23.00
2018-08-23T16:56:24.255Z,22.30
2018-08-23T16:59:28.564Z,22.50
2018-08-23T17:02:33.027Z,22.80
2018-08-23T17:05:37.387Z,22.90
2018-08-23T17:08:41.694Z,22.80
2018-08-23T17:11:46.034Z,22.70
2018-08-23T17:14:50.366Z,22.30
2018-08-23T17:17:55.746Z,22.00
2018-08-23T17:21:00.029Z,21.80
2018-08-23T17:24:04.434Z,21.60
2018-08-23T17:27:08.843Z,21.50
2018-08-23T17:33:18.343Z,21.40
2018-08-23T17:36:22.679Z,21.40
2018-08-23T17:39:27.136Z,21.40
2018-08-23T17:42:36.751Z,21.40
2018-08-23T17:45:41.138Z,21.40
2018-08-23T17:48:45.733Z,21.40
2018-08-23T17:51:50.115Z,21.30
2018-08-23T17:54:54.523Z,21.30
2018-08-23T17:57:59.020Z,21.30
2018-08-23T18:01:03.510Z,21.30
2018-08-23T18:04:07.858Z,21.30
2018-08-23T18:07:12.146Z,21.20
2018-08-23T18:10:16.622Z,21.20
2018-08-23T18:13:21.171Z,21.10
2018-08-23T18:16:30.792Z,21.10
2018-08-23T18:19:35.216Z,21.10
2018-08-23T18:22:39.545Z,21.00
2018-08-23T18:25:44.293Z,21.00
2018-08-23T18:28:48.645Z,21.00
2018-08-23T18:34:57.205Z,20.90
2018-08-23T18:38:01.506Z,20.90
2018-08-23T18:41:05.966Z,20.80
2018-08-23T18:44:10.497Z,20.70
2018-08-23T18:50:19.489Z,20.70
2018-08-23T18:53:23.840Z,20.70
2018-08-23T18:56:29.533Z,20.60
2018-08-23T19:02:38.054Z,20.60
2018-08-23T19:05:42.491Z,20.60
2018-08-23T19:08:46.973Z,20.60
2018-08-23T19:11:51.296Z,20.60
2018-08-23T19:18:01.160Z,20.50
2018-08-23T19:21:05.580Z,20.50
2018-08-23T19:24:09.868Z,20.50
2018-08-23T19:30:18.468Z,20.50
2018-08-23T19:33:22.889Z,20.40
2018-08-23T19:36:27.483Z,20.30
2018-08-23T19:39:31.905Z,20.30
2018-08-23T19:48:54.935Z,20.00
2018-08-23T19:51:59.332Z,20.00
2018-08-23T19:55:03.756Z,20.00
2018-08-23T20:01:12.285Z,19.90
2018-08-23T20:04:16.713Z,19.80
2018-08-23T20:07:21.125Z,19.80
2018-08-23T20:10:25.560Z,19.80
2018-08-23T20:13:30.073Z,19.80
2018-08-23T20:19:38.585Z,19.70
2018-08-23T20:28:51.085Z,19.40
2018-08-23T20:31:56.049Z,19.30
2018-08-23T20:35:00.512Z,19.30
2018-08-23T20:41:09.155Z,19.30
2018-08-23T20:44:13.581Z,19.20
2018-08-23T20:47:18.915Z,19.10
2018-08-23T20:50:23.242Z,19.00
2018-08-23T20:53:27.687Z,19.00
2018-08-23T20:56:32.184Z,18.90
2018-08-23T20:59:36.611Z,18.90
2018-08-23T21:02:40.990Z,18.90
2018-08-23T21:05:45.312Z,18.80
2018-08-23T21:08:49.624Z,18.70
2018-08-23T21:11:53.961Z,18.70
2018-08-23T21:14:59.197Z,18.70
2018-08-23T21:21:07.619Z,18.70
2018-08-23T21:24:11.976Z,18.70
2018-08-23T21:27:16.445Z,18.70
2018-08-23T21:30:20.867Z,18.80
2018-08-23T21:39:33.545Z,18.80
2018-08-23T21:42:37.918Z,18.80
2018-08-23T21:45:42.158Z,18.80
2018-08-23T21:51:50.616Z,18.90
2018-08-23T21:54:54.937Z,18.90
2018-08-23T21:57:59.187Z,18.90
2018-08-23T22:01:06.929Z,18.90
2018-08-23T22:04:11.296Z,18.90
2018-08-23T22:07:15.868Z,18.90
2018-08-23T22:10:20.218Z,18.80
2018-08-23T22:13:24.555Z,18.80
2018-08-23T22:19:32.975Z,18.70
2018-08-23T22:22:37.286Z,18.70
2018-08-23T22:25:41.978Z,18.80
2018-08-23T22:28:46.350Z,18.70
2018-08-23T22:31:50.636Z,18.70
2018-08-23T22:34:54.942Z,18.70
2018-08-23T22:41:03.490Z,18.70
2018-08-23T22:44:07.967Z,18.70
2018-08-23T22:47:12.315Z,18.70
2018-08-23T22:50:16.689Z,18.60
2018-08-23T22:56:25.196Z,18.50
2018-08-23T22:59:29.482Z,18.50
2018-08-23T23:05:41.920Z,18.50
2018-08-23T23:14:54.572Z,18.60
2018-08-23T23:17:58.955Z,18.60
2018-08-23T23:21:03.295Z,18.60
2018-08-23T23:24:11.763Z,18.50
2018-08-23T23:27:16.124Z,18.50
2018-08-23T23:30:20.410Z,18.50
2018-08-23T23:36:28.713Z,18.50
2018-08-23T23:39:33.044Z,18.50
2018-08-23T23:42:38.012Z,18.50
2018-08-23T23:45:42.301Z,18.50
2018-08-23T23:48:46.641Z,18.60
2018-08-23T23:51:51.041Z,18.60
2018-08-23T23:54:55.387Z,18.50
2018-08-23T23:57:59.693Z,18.50
